sensor_id;sensor_type;location;lat;lon;timestamp;P1;durP1;ratioP1;P2;durP2;ratioP2
41687;SDS011;27371;42.686;23.362;2023-09-19T00:01:34;4.28;;;3.15;;
41687;SDS011;27371;42.686;23.362;2023-09-19T00:04:00;4.80;;;3.45;;
41687;SDS011;27371;42.686;23.362;2023-09-19T00:06:29;5.43;;;3.20;;
41687;SDS011;27371;42.686;23.362;2023-09-19T00:08:56;4.95;;;3.58;;
41687;SDS011;27371;42.686;23.362;2023-09-19T00:11:24;5.93;;;3.20;;
41687;SDS011;27371;42.686;23.362;2023-09-19T00:13:51;6.78;;;3.53;;
41687;SDS011;27371;42.686;23.362;2023-09-19T00:16:16;6.38;;;3.00;;
41687;SDS011;27371;42.686;23.362;2023-09-19T00:18:44;8.05;;;3.50;;
41687;SDS011;27371;42.686;23.362;2023-09-19T00:21:10;8.73;;;3.38;;
41687;SDS011;27371;42.686;23.362;2023-09-19T00:23:35;4.78;;;3.30;;
41687;SDS011;27371;42.686;23.362;2023-09-19T00:26:01;7.05;;;3.75;;
41687;SDS011;27371;42.686;23.362;2023-09-19T00:28:27;10.23;;;4.10;;
41687;SDS011;27371;42.686;23.362;2023-09-19T00:30:52;6.00;;;3.25;;
41687;SDS011;27371;42.686;23.362;2023-09-19T00:33:20;10.23;;;3.70;;
41687;SDS011;27371;42.686;23.362;2023-09-19T00:38:15;6.25;;;3.38;;
41687;SDS011;27371;42.686;23.362;2023-09-19T00:40:45;5.40;;;3.65;;
41687;SDS011;27371;42.686;23.362;2023-09-19T00:43:12;4.85;;;3.42;;
41687;SDS011;27371;42.686;23.362;2023-09-19T00:45:37;6.60;;;3.72;;
41687;SDS011;27371;42.686;23.362;2023-09-19T00:48:04;5.63;;;3.70;;
41687;SDS011;27371;42.686;23.362;2023-09-19T00:50:32;6.28;;;3.85;;
41687;SDS011;27371;42.686;23.362;2023-09-19T00:52:58;4.32;;;3.50;;
41687;SDS011;27371;42.686;23.362;2023-09-19T00:55:24;6.68;;;3.72;;
41687;SDS011;27371;42.686;23.362;2023-09-19T00:57:50;6.70;;;3.53;;
41687;SDS011;27371;42.686;23.362;2023-09-19T01:00:17;7.00;;;3.90;;
41687;SDS011;27371;42.686;23.362;2023-09-19T01:02:46;7.15;;;3.63;;
41687;SDS011;27371;42.686;23.362;2023-09-19T01:05:12;7.68;;;3.85;;
41687;SDS011;27371;42.686;23.362;2023-09-19T01:07:37;6.55;;;4.13;;
41687;SDS011;27371;42.686;23.362;2023-09-19T01:10:06;5.75;;;4.05;;
41687;SDS011;27371;42.686;23.362;2023-09-19T01:15:14;5.68;;;4.00;;
41687;SDS011;27371;42.686;23.362;2023-09-19T01:26:20;6.32;;;3.78;;
41687;SDS011;27371;42.686;23.362;2023-09-19T01:29:08;8.00;;;4.28;;
41687;SDS011;27371;42.686;23.362;2023-09-19T01:31:54;7.80;;;4.93;;
41687;SDS011;27371;42.686;23.362;2023-09-19T01:34:26;8.02;;;5.60;;
41687;SDS011;27371;42.686;23.362;2023-09-19T01:36:52;8.77;;;4.53;;
41687;SDS011;27371;42.686;23.362;2023-09-19T01:39:17;8.50;;;5.05;;
41687;SDS011;27371;42.686;23.362;2023-09-19T01:52:36;7.00;;;4.95;;
41687;SDS011;27371;42.686;23.362;2023-09-19T01:55:09;9.38;;;5.65;;
41687;SDS011;27371;42.686;23.362;2023-09-19T01:58:14;10.43;;;4.97;;
41687;SDS011;27371;42.686;23.362;2023-09-19T02:00:40;9.18;;;5.63;;
41687;SDS011;27371;42.686;23.362;2023-09-19T02:03:08;7.88;;;5.63;;
41687;SDS011;27371;42.686;23.362;2023-09-19T02:05:35;12.88;;;5.53;;
41687;SDS011;27371;42.686;23.362;2023-09-19T02:08:00;7.93;;;5.88;;
41687;SDS011;27371;42.686;23.362;2023-09-19T02:10:26;11.10;;;5.78;;
41687;SDS011;27371;42.686;23.362;2023-09-19T02:12:52;7.95;;;5.65;;
41687;SDS011;27371;42.686;23.362;2023-09-19T02:15:17;10.23;;;5.95;;
41687;SDS011;27371;42.686;23.362;2023-09-19T02:17:43;9.18;;;5.53;;
41687;SDS011;27371;42.686;23.362;2023-09-19T02:20:11;8.38;;;5.53;;
41687;SDS011;27371;42.686;23.362;2023-09-19T02:22:37;10.93;;;4.82;;
41687;SDS011;27371;42.686;23.362;2023-09-19T02:25:04;9.63;;;4.70;;
41687;SDS011;27371;42.686;23.362;2023-09-19T02:27:30;9.60;;;4.95;;
41687;SDS011;27371;42.686;23.362;2023-09-19T02:29:56;5.55;;;4.63;;
41687;SDS011;27371;42.686;23.362;2023-09-19T02:32:21;7.70;;;4.90;;
41687;SDS011;27371;42.686;23.362;2023-09-19T02:34:48;6.88;;;4.35;;
41687;SDS011;27371;42.686;23.362;2023-09-19T02:37:17;7.45;;;5.30;;
41687;SDS011;27371;42.686;23.362;2023-09-19T02:39:44;10.07;;;4.80;;
41687;SDS011;27371;42.686;23.362;2023-09-19T02:42:09;6.07;;;4.68;;
41687;SDS011;27371;42.686;23.362;2023-09-19T02:44:35;6.57;;;4.57;;
41687;SDS011;27371;42.686;23.362;2023-09-19T02:47:00;6.07;;;4.30;;
41687;SDS011;27371;42.686;23.362;2023-09-19T02:49:26;7.05;;;4.45;;
41687;SDS011;27371;42.686;23.362;2023-09-19T02:51:51;6.38;;;4.63;;
41687;SDS011;27371;42.686;23.362;2023-09-19T02:54:17;6.05;;;4.43;;
41687;SDS011;27371;42.686;23.362;2023-09-19T02:56:43;7.38;;;5.13;;
41687;SDS011;27371;42.686;23.362;2023-09-19T02:59:09;6.95;;;4.85;;
41687;SDS011;27371;42.686;23.362;2023-09-19T03:01:37;7.75;;;5.30;;
41687;SDS011;27371;42.686;23.362;2023-09-19T03:04:03;7.55;;;4.90;;
41687;SDS011;27371;42.686;23.362;2023-09-19T03:06:33;8.32;;;5.45;;
41687;SDS011;27371;42.686;23.362;2023-09-19T03:08:59;7.00;;;5.13;;
41687;SDS011;27371;42.686;23.362;2023-09-19T03:11:25;6.72;;;5.40;;
41687;SDS011;27371;42.686;23.362;2023-09-19T03:13:52;6.40;;;5.00;;
41687;SDS011;27371;42.686;23.362;2023-09-19T03:16:18;6.70;;;4.95;;
41687;SDS011;27371;42.686;23.362;2023-09-19T03:18:47;7.13;;;5.50;;
41687;SDS011;27371;42.686;23.362;2023-09-19T03:21:14;9.02;;;5.15;;
41687;SDS011;27371;42.686;23.362;2023-09-19T03:23:40;6.65;;;4.70;;
41687;SDS011;27371;42.686;23.362;2023-09-19T03:26:06;6.35;;;4.85;;
41687;SDS011;27371;42.686;23.362;2023-09-19T03:28:33;8.35;;;5.05;;
41687;SDS011;27371;42.686;23.362;2023-09-19T03:31:02;9.88;;;4.88;;
41687;SDS011;27371;42.686;23.362;2023-09-19T03:33:29;6.07;;;4.72;;
41687;SDS011;27371;42.686;23.362;2023-09-19T03:35:58;6.63;;;4.75;;
41687;SDS011;27371;42.686;23.362;2023-09-19T03:38:25;6.75;;;5.15;;
41687;SDS011;27371;42.686;23.362;2023-09-19T03:40:52;6.05;;;5.00;;
41687;SDS011;27371;42.686;23.362;2023-09-19T03:43:19;8.02;;;5.60;;
41687;SDS011;27371;42.686;23.362;2023-09-19T03:45:44;7.15;;;4.38;;
41687;SDS011;27371;42.686;23.362;2023-09-19T03:48:11;6.53;;;5.05;;
41687;SDS011;27371;42.686;23.362;2023-09-19T03:50:37;6.22;;;4.63;;
41687;SDS011;27371;42.686;23.362;2023-09-19T03:53:03;6.97;;;4.85;;
41687;SDS011;27371;42.686;23.362;2023-09-19T03:55:28;7.18;;;5.63;;
41687;SDS011;27371;42.686;23.362;2023-09-19T03:57:57;9.68;;;5.70;;
41687;SDS011;27371;42.686;23.362;2023-09-19T04:00:23;8.98;;;5.53;;
41687;SDS011;27371;42.686;23.362;2023-09-19T04:02:51;8.95;;;6.35;;
41687;SDS011;27371;42.686;23.362;2023-09-19T04:05:18;12.98;;;6.47;;
41687;SDS011;27371;42.686;23.362;2023-09-19T04:07:44;10.10;;;6.22;;
41687;SDS011;27371;42.686;23.362;2023-09-19T04:10:10;10.00;;;6.97;;
41687;SDS011;27371;42.686;23.362;2023-09-19T04:12:39;12.07;;;7.35;;
41687;SDS011;27371;42.686;23.362;2023-09-19T04:15:05;10.93;;;6.82;;
41687;SDS011;27371;42.686;23.362;2023-09-19T04:17:32;9.48;;;6.95;;
41687;SDS011;27371;42.686;23.362;2023-09-19T04:19:58;8.35;;;6.35;;
41687;SDS011;27371;42.686;23.362;2023-09-19T04:22:29;11.45;;;6.40;;
41687;SDS011;27371;42.686;23.362;2023-09-19T04:24:55;8.50;;;5.47;;
41687;SDS011;27371;42.686;23.362;2023-09-19T04:27:21;9.57;;;6.10;;
41687;SDS011;27371;42.686;23.362;2023-09-19T04:29:46;8.55;;;5.47;;
41687;SDS011;27371;42.686;23.362;2023-09-19T04:32:12;6.05;;;4.90;;
41687;SDS011;27371;42.686;23.362;2023-09-19T04:34:38;7.22;;;4.95;;
41687;SDS011;27371;42.686;23.362;2023-09-19T04:37:03;6.47;;;4.50;;
41687;SDS011;27371;42.686;23.362;2023-09-19T04:39:29;10.57;;;5.15;;
41687;SDS011;27371;42.686;23.362;2023-09-19T04:41:55;7.90;;;4.97;;
41687;SDS011;27371;42.686;23.362;2023-09-19T04:44:20;6.95;;;4.00;;
41687;SDS011;27371;42.686;23.362;2023-09-19T04:46:46;8.00;;;4.70;;
41687;SDS011;27371;42.686;23.362;2023-09-19T04:49:12;8.50;;;4.82;;
41687;SDS011;27371;42.686;23.362;2023-09-19T04:51:38;8.07;;;4.85;;
41687;SDS011;27371;42.686;23.362;2023-09-19T04:54:05;9.40;;;4.78;;
41687;SDS011;27371;42.686;23.362;2023-09-19T04:56:32;10.30;;;5.43;;
41687;SDS011;27371;42.686;23.362;2023-09-19T04:58:59;8.10;;;5.15;;
41687;SDS011;27371;42.686;23.362;2023-09-19T05:01:25;7.97;;;4.97;;
41687;SDS011;27371;42.686;23.362;2023-09-19T05:03:51;9.48;;;4.93;;
41687;SDS011;27371;42.686;23.362;2023-09-19T05:06:19;12.85;;;4.97;;
41687;SDS011;27371;42.686;23.362;2023-09-19T05:08:46;11.60;;;4.85;;
41687;SDS011;27371;42.686;23.362;2023-09-19T05:11:16;8.88;;;4.97;;
41687;SDS011;27371;42.686;23.362;2023-09-19T05:13:46;9.73;;;4.85;;
41687;SDS011;27371;42.686;23.362;2023-09-19T05:16:12;8.85;;;4.70;;
41687;SDS011;27371;42.686;23.362;2023-09-19T05:18:37;7.95;;;4.05;;
41687;SDS011;27371;42.686;23.362;2023-09-19T05:21:03;5.45;;;4.07;;
41687;SDS011;27371;42.686;23.362;2023-09-19T05:23:28;6.85;;;3.80;;
41687;SDS011;27371;42.686;23.362;2023-09-19T05:25:54;7.75;;;3.97;;
41687;SDS011;27371;42.686;23.362;2023-09-19T05:28:21;7.88;;;4.90;;
41687;SDS011;27371;42.686;23.362;2023-09-19T05:30:48;7.97;;;3.53;;
41687;SDS011;27371;42.686;23.362;2023-09-19T05:33:14;8.60;;;3.10;;
41687;SDS011;27371;42.686;23.362;2023-09-19T05:35:39;6.22;;;3.50;;
41687;SDS011;27371;42.686;23.362;2023-09-19T05:38:07;5.90;;;3.35;;
41687;SDS011;27371;42.686;23.362;2023-09-19T05:40:37;4.78;;;2.90;;
41687;SDS011;27371;42.686;23.362;2023-09-19T05:43:05;4.47;;;3.05;;
41687;SDS011;27371;42.686;23.362;2023-09-19T05:45:31;3.90;;;2.80;;
41687;SDS011;27371;42.686;23.362;2023-09-19T05:48:05;6.43;;;3.08;;
41687;SDS011;27371;42.686;23.362;2023-09-19T05:50:33;8.95;;;3.17;;
41687;SDS011;27371;42.686;23.362;2023-09-19T05:52:59;4.35;;;2.83;;
41687;SDS011;27371;42.686;23.362;2023-09-19T05:55:24;5.40;;;2.97;;
41687;SDS011;27371;42.686;23.362;2023-09-19T05:57:50;5.10;;;2.90;;
41687;SDS011;27371;42.686;23.362;2023-09-19T06:00:18;6.25;;;3.20;;
41687;SDS011;27371;42.686;23.362;2023-09-19T06:02:49;5.68;;;3.40;;
41687;SDS011;27371;42.686;23.362;2023-09-19T06:05:15;6.70;;;2.97;;
41687;SDS011;27371;42.686;23.362;2023-09-19T06:07:41;5.60;;;3.30;;
41687;SDS011;27371;42.686;23.362;2023-09-19T06:10:07;6.38;;;3.30;;
41687;SDS011;27371;42.686;23.362;2023-09-19T06:12:33;4.75;;;3.05;;
41687;SDS011;27371;42.686;23.362;2023-09-19T06:15:04;6.32;;;3.00;;
41687;SDS011;27371;42.686;23.362;2023-09-19T06:17:34;5.97;;;3.30;;
41687;SDS011;27371;42.686;23.362;2023-09-19T06:20:04;7.30;;;3.67;;
41687;SDS011;27371;42.686;23.362;2023-09-19T06:25:03;6.30;;;3.28;;
41687;SDS011;27371;42.686;23.362;2023-09-19T06:27:30;9.73;;;3.35;;
41687;SDS011;27371;42.686;23.362;2023-09-19T06:29:55;9.02;;;3.17;;
41687;SDS011;27371;42.686;23.362;2023-09-19T06:32:26;8.57;;;3.67;;
41687;SDS011;27371;42.686;23.362;2023-09-19T06:34:52;5.72;;;3.40;;
41687;SDS011;27371;42.686;23.362;2023-09-19T06:37:20;6.03;;;2.95;;
41687;SDS011;27371;42.686;23.362;2023-09-19T06:39:46;7.05;;;3.45;;
41687;SDS011;27371;42.686;23.362;2023-09-19T06:42:14;5.20;;;2.42;;
41687;SDS011;27371;42.686;23.362;2023-09-19T06:44:42;5.80;;;2.97;;
41687;SDS011;27371;42.686;23.362;2023-09-19T06:47:08;6.10;;;2.80;;
41687;SDS011;27371;42.686;23.362;2023-09-19T06:49:35;5.55;;;3.20;;
41687;SDS011;27371;42.686;23.362;2023-09-19T06:52:00;5.28;;;2.85;;
41687;SDS011;27371;42.686;23.362;2023-09-19T06:54:27;4.97;;;2.75;;
41687;SDS011;27371;42.686;23.362;2023-09-19T06:56:56;3.47;;;2.42;;
41687;SDS011;27371;42.686;23.362;2023-09-19T06:59:24;7.40;;;2.90;;
41687;SDS011;27371;42.686;23.362;2023-09-19T07:01:51;7.00;;;3.08;;
41687;SDS011;27371;42.686;23.362;2023-09-19T07:04:17;7.30;;;2.90;;
41687;SDS011;27371;42.686;23.362;2023-09-19T07:06:44;6.15;;;3.17;;
41687;SDS011;27371;42.686;23.362;2023-09-19T07:09:16;4.43;;;2.60;;
41687;SDS011;27371;42.686;23.362;2023-09-19T07:11:42;3.80;;;2.65;;
41687;SDS011;27371;42.686;23.362;2023-09-19T07:14:08;9.32;;;2.95;;
41687;SDS011;27371;42.686;23.362;2023-09-19T07:16:36;5.20;;;2.80;;
41687;SDS011;27371;42.686;23.362;2023-09-19T07:19:03;4.88;;;2.67;;
41687;SDS011;27371;42.686;23.362;2023-09-19T07:21:29;5.57;;;2.95;;
41687;SDS011;27371;42.686;23.362;2023-09-19T07:23:55;6.18;;;3.17;;
41687;SDS011;27371;42.686;23.362;2023-09-19T07:26:20;5.55;;;2.65;;
41687;SDS011;27371;42.686;23.362;2023-09-19T07:28:46;6.80;;;3.40;;
41687;SDS011;27371;42.686;23.362;2023-09-19T07:31:11;6.10;;;2.70;;
41687;SDS011;27371;42.686;23.362;2023-09-19T07:33:39;7.25;;;2.60;;
41687;SDS011;27371;42.686;23.362;2023-09-19T07:36:06;6.60;;;3.30;;
41687;SDS011;27371;42.686;23.362;2023-09-19T07:38:35;5.38;;;3.17;;
41687;SDS011;27371;42.686;23.362;2023-09-19T07:41:01;4.25;;;2.78;;
41687;SDS011;27371;42.686;23.362;2023-09-19T07:43:27;5.72;;;2.00;;
41687;SDS011;27371;42.686;23.362;2023-09-19T07:45:53;4.65;;;2.25;;
41687;SDS011;27371;42.686;23.362;2023-09-19T07:48:18;4.75;;;2.63;;
41687;SDS011;27371;42.686;23.362;2023-09-19T07:50:44;5.72;;;2.88;;
41687;SDS011;27371;42.686;23.362;2023-09-19T07:53:10;7.10;;;2.75;;
41687;SDS011;27371;42.686;23.362;2023-09-19T07:55:38;6.15;;;3.17;;
41687;SDS011;27371;42.686;23.362;2023-09-19T07:58:06;4.82;;;2.65;;
41687;SDS011;27371;42.686;23.362;2023-09-19T08:00:32;5.15;;;3.10;;
41687;SDS011;27371;42.686;23.362;2023-09-19T08:03:00;5.88;;;2.85;;
41687;SDS011;27371;42.686;23.362;2023-09-19T08:05:26;8.23;;;3.28;;
41687;SDS011;27371;42.686;23.362;2023-09-19T08:07:52;6.75;;;3.67;;
41687;SDS011;27371;42.686;23.362;2023-09-19T08:10:19;6.65;;;3.13;;
41687;SDS011;27371;42.686;23.362;2023-09-19T08:12:45;5.22;;;3.05;;
41687;SDS011;27371;42.686;23.362;2023-09-19T08:15:12;6.25;;;3.42;;
41687;SDS011;27371;42.686;23.362;2023-09-19T08:17:38;5.63;;;3.03;;
41687;SDS011;27371;42.686;23.362;2023-09-19T08:20:04;6.15;;;3.05;;
41687;SDS011;27371;42.686;23.362;2023-09-19T08:22:30;7.03;;;3.53;;
41687;SDS011;27371;42.686;23.362;2023-09-19T08:24:57;5.28;;;3.28;;
41687;SDS011;27371;42.686;23.362;2023-09-19T08:27:23;5.53;;;2.88;;
41687;SDS011;27371;42.686;23.362;2023-09-19T08:29:52;6.43;;;2.97;;
41687;SDS011;27371;42.686;23.362;2023-09-19T08:32:18;4.65;;;2.88;;
41687;SDS011;27371;42.686;23.362;2023-09-19T08:34:49;20.02;;;3.78;;
41687;SDS011;27371;42.686;23.362;2023-09-19T08:37:14;5.22;;;3.38;;
41687;SDS011;27371;42.686;23.362;2023-09-19T08:39:42;7.90;;;3.28;;
41687;SDS011;27371;42.686;23.362;2023-09-19T08:42:07;6.13;;;3.10;;
41687;SDS011;27371;42.686;23.362;2023-09-19T08:44:36;10.05;;;3.60;;
41687;SDS011;27371;42.686;23.362;2023-09-19T08:47:09;6.88;;;3.20;;
41687;SDS011;27371;42.686;23.362;2023-09-19T08:52:35;5.07;;;3.55;;
41687;SDS011;27371;42.686;23.362;2023-09-19T08:55:06;6.20;;;3.65;;
41687;SDS011;27371;42.686;23.362;2023-09-19T08:57:37;4.65;;;3.40;;
41687;SDS011;27371;42.686;23.362;2023-09-19T09:00:07;11.13;;;3.78;;
41687;SDS011;27371;42.686;23.362;2023-09-19T09:02:36;7.85;;;3.63;;
41687;SDS011;27371;42.686;23.362;2023-09-19T09:05:05;5.28;;;3.13;;
41687;SDS011;27371;42.686;23.362;2023-09-19T09:07:34;7.97;;;3.72;;
41687;SDS011;27371;42.686;23.362;2023-09-19T09:10:04;13.90;;;3.72;;
41687;SDS011;27371;42.686;23.362;2023-09-19T09:12:31;5.25;;;2.85;;
41687;SDS011;27371;42.686;23.362;2023-09-19T09:14:57;10.73;;;3.83;;
41687;SDS011;27371;42.686;23.362;2023-09-19T09:17:22;5.45;;;3.20;;
41687;SDS011;27371;42.686;23.362;2023-09-19T09:19:52;9.73;;;3.30;;
41687;SDS011;27371;42.686;23.362;2023-09-19T09:22:21;8.90;;;5.15;;
41687;SDS011;27371;42.686;23.362;2023-09-19T09:24:53;10.70;;;4.68;;
41687;SDS011;27371;42.686;23.362;2023-09-19T09:27:23;7.20;;;4.50;;
41687;SDS011;27371;42.686;23.362;2023-09-19T09:29:49;7.20;;;3.13;;
41687;SDS011;27371;42.686;23.362;2023-09-19T09:32:16;7.30;;;3.40;;
41687;SDS011;27371;42.686;23.362;2023-09-19T09:34:43;5.32;;;3.38;;
41687;SDS011;27371;42.686;23.362;2023-09-19T09:37:16;7.78;;;3.80;;
41687;SDS011;27371;42.686;23.362;2023-09-19T09:39:54;8.18;;;3.63;;
41687;SDS011;27371;42.686;23.362;2023-09-19T09:42:34;4.55;;;2.80;;
41687;SDS011;27371;42.686;23.362;2023-09-19T09:45:17;8.43;;;3.40;;
41687;SDS011;27371;42.686;23.362;2023-09-19T09:47:58;7.05;;;3.17;;
41687;SDS011;27371;42.686;23.362;2023-09-19T09:50:39;3.63;;;2.90;;
41687;SDS011;27371;42.686;23.362;2023-09-19T09:53:22;4.75;;;2.90;;
41687;SDS011;27371;42.686;23.362;2023-09-19T09:58:38;4.05;;;2.70;;
41687;SDS011;27371;42.686;23.362;2023-09-19T10:01:15;5.00;;;2.97;;
41687;SDS011;27371;42.686;23.362;2023-09-19T10:03:41;5.05;;;3.10;;
41687;SDS011;27371;42.686;23.362;2023-09-19T10:06:16;11.48;;;3.60;;
41687;SDS011;27371;42.686;23.362;2023-09-19T10:09:01;7.35;;;3.42;;
41687;SDS011;27371;42.686;23.362;2023-09-19T10:11:47;4.72;;;2.83;;
41687;SDS011;27371;42.686;23.362;2023-09-19T10:14:22;5.78;;;3.40;;
41687;SDS011;27371;42.686;23.362;2023-09-19T10:16:54;4.97;;;2.83;;
41687;SDS011;27371;42.686;23.362;2023-09-19T10:19:40;8.55;;;3.72;;
41687;SDS011;27371;42.686;23.362;2023-09-19T10:22:11;7.97;;;2.60;;
41687;SDS011;27371;42.686;23.362;2023-09-19T10:24:46;7.28;;;2.95;;
41687;SDS011;27371;42.686;23.362;2023-09-19T10:27:12;6.35;;;3.33;;
41687;SDS011;27371;42.686;23.362;2023-09-19T10:29:44;8.95;;;3.05;;
41687;SDS011;27371;42.686;23.362;2023-09-19T10:32:15;6.72;;;3.03;;
41687;SDS011;27371;42.686;23.362;2023-09-19T10:34:46;10.70;;;4.03;;
41687;SDS011;27371;42.686;23.362;2023-09-19T10:37:12;5.53;;;3.22;;
41687;SDS011;27371;42.686;23.362;2023-09-19T10:39:40;8.05;;;3.28;;
41687;SDS011;27371;42.686;23.362;2023-09-19T10:42:11;4.72;;;2.85;;
41687;SDS011;27371;42.686;23.362;2023-09-19T10:44:42;4.90;;;3.00;;
41687;SDS011;27371;42.686;23.362;2023-09-19T10:47:11;4.38;;;2.83;;
41687;SDS011;27371;42.686;23.362;2023-09-19T10:49:43;5.00;;;2.95;;
41687;SDS011;27371;42.686;23.362;2023-09-19T10:52:17;5.68;;;3.40;;
41687;SDS011;27371;42.686;23.362;2023-09-19T10:57:22;3.47;;;2.60;;
41687;SDS011;27371;42.686;23.362;2023-09-19T11:00:04;8.05;;;3.35;;
41687;SDS011;27371;42.686;23.362;2023-09-19T11:05:36;3.83;;;2.88;;
41687;SDS011;27371;42.686;23.362;2023-09-19T11:08:06;6.03;;;2.90;;
41687;SDS011;27371;42.686;23.362;2023-09-19T11:10:45;4.82;;;3.08;;
41687;SDS011;27371;42.686;23.362;2023-09-19T11:13:27;5.68;;;3.17;;
41687;SDS011;27371;42.686;23.362;2023-09-19T11:26:43;8.95;;;3.97;;
41687;SDS011;27371;42.686;23.362;2023-09-19T11:31:51;7.38;;;3.80;;
41687;SDS011;27371;42.686;23.362;2023-09-19T11:34:37;6.97;;;3.75;;
41687;SDS011;27371;42.686;23.362;2023-09-19T11:40:04;4.70;;;3.10;;
41687;SDS011;27371;42.686;23.362;2023-09-19T11:42:43;4.45;;;2.90;;
41687;SDS011;27371;42.686;23.362;2023-09-19T11:48:06;7.97;;;3.30;;
41687;SDS011;27371;42.686;23.362;2023-09-19T11:50:32;8.55;;;3.30;;
41687;SDS011;27371;42.686;23.362;2023-09-19T11:53:01;6.60;;;3.00;;
41687;SDS011;27371;42.686;23.362;2023-09-19T11:55:30;3.75;;;3.03;;
41687;SDS011;27371;42.686;23.362;2023-09-19T11:57:58;4.72;;;2.90;;
41687;SDS011;27371;42.686;23.362;2023-09-19T12:00:25;6.88;;;3.65;;
41687;SDS011;27371;42.686;23.362;2023-09-19T12:02:52;4.45;;;3.28;;
41687;SDS011;27371;42.686;23.362;2023-09-19T12:05:39;6.65;;;3.20;;
41687;SDS011;27371;42.686;23.362;2023-09-19T12:08:05;4.07;;;3.08;;
41687;SDS011;27371;42.686;23.362;2023-09-19T12:10:44;6.45;;;3.08;;
41687;SDS011;27371;42.686;23.362;2023-09-19T12:13:17;5.93;;;2.85;;
41687;SDS011;27371;42.686;23.362;2023-09-19T12:15:43;4.22;;;3.00;;
41687;SDS011;27371;42.686;23.362;2023-09-19T12:18:33;4.72;;;2.72;;
41687;SDS011;27371;42.686;23.362;2023-09-19T12:21:00;4.43;;;3.10;;
41687;SDS011;27371;42.686;23.362;2023-09-19T12:23:27;8.77;;;3.90;;
41687;SDS011;27371;42.686;23.362;2023-09-19T12:25:54;4.30;;;2.85;;
41687;SDS011;27371;42.686;23.362;2023-09-19T12:28:22;8.20;;;3.50;;
41687;SDS011;27371;42.686;23.362;2023-09-19T12:30:53;7.78;;;3.63;;
41687;SDS011;27371;42.686;23.362;2023-09-19T12:33:23;5.70;;;3.20;;
41687;SDS011;27371;42.686;23.362;2023-09-19T12:35:51;6.90;;;3.20;;
41687;SDS011;27371;42.686;23.362;2023-09-19T12:38:23;6.30;;;3.33;;
41687;SDS011;27371;42.686;23.362;2023-09-19T12:40:50;7.45;;;3.53;;
41687;SDS011;27371;42.686;23.362;2023-09-19T12:43:17;6.90;;;2.97;;
41687;SDS011;27371;42.686;23.362;2023-09-19T12:45:43;6.13;;;3.08;;
41687;SDS011;27371;42.686;23.362;2023-09-19T12:51:00;5.07;;;3.25;;
41687;SDS011;27371;42.686;23.362;2023-09-19T12:53:32;5.95;;;3.13;;
41687;SDS011;27371;42.686;23.362;2023-09-19T12:56:01;6.72;;;2.95;;
41687;SDS011;27371;42.686;23.362;2023-09-19T12:58:27;6.97;;;3.22;;
41687;SDS011;27371;42.686;23.362;2023-09-19T13:00:55;4.68;;;3.50;;
41687;SDS011;27371;42.686;23.362;2023-09-19T13:13:32;6.35;;;3.72;;
41687;SDS011;27371;42.686;23.362;2023-09-19T13:15:58;4.75;;;3.40;;
41687;SDS011;27371;42.686;23.362;2023-09-19T13:18:26;5.88;;;3.33;;
41687;SDS011;27371;42.686;23.362;2023-09-19T13:21:05;5.32;;;3.45;;
41687;SDS011;27371;42.686;23.362;2023-09-19T13:23:47;4.00;;;3.00;;
41687;SDS011;27371;42.686;23.362;2023-09-19T13:26:17;5.40;;;3.05;;
41687;SDS011;27371;42.686;23.362;2023-09-19T13:28:43;6.68;;;3.53;;
41687;SDS011;27371;42.686;23.362;2023-09-19T13:31:09;6.53;;;3.40;;
41687;SDS011;27371;42.686;23.362;2023-09-19T13:33:42;7.47;;;3.15;;
41687;SDS011;27371;42.686;23.362;2023-09-19T13:36:08;4.20;;;3.17;;
41687;SDS011;27371;42.686;23.362;2023-09-19T13:38:34;4.88;;;3.25;;
41687;SDS011;27371;42.686;23.362;2023-09-19T13:41:00;3.78;;;2.95;;
41687;SDS011;27371;42.686;23.362;2023-09-19T13:43:27;9.40;;;3.28;;
41687;SDS011;27371;42.686;23.362;2023-09-19T13:45:53;4.72;;;2.95;;
41687;SDS011;27371;42.686;23.362;2023-09-19T13:48:19;10.23;;;3.58;;
41687;SDS011;27371;42.686;23.362;2023-09-19T13:50:47;8.77;;;3.75;;
41687;SDS011;27371;42.686;23.362;2023-09-19T13:53:14;6.68;;;3.63;;
41687;SDS011;27371;42.686;23.362;2023-09-19T13:55:40;4.32;;;3.33;;
41687;SDS011;27371;42.686;23.362;2023-09-19T13:58:06;6.10;;;3.58;;
41687;SDS011;27371;42.686;23.362;2023-09-19T14:00:32;7.50;;;3.78;;
41687;SDS011;27371;42.686;23.362;2023-09-19T14:02:59;5.45;;;3.35;;
41687;SDS011;27371;42.686;23.362;2023-09-19T14:05:26;6.28;;;2.90;;
41687;SDS011;27371;42.686;23.362;2023-09-19T14:07:53;5.78;;;3.38;;
41687;SDS011;27371;42.686;23.362;2023-09-19T14:10:21;3.90;;;2.78;;
41687;SDS011;27371;42.686;23.362;2023-09-19T14:12:46;7.85;;;3.50;;
41687;SDS011;27371;42.686;23.362;2023-09-19T14:15:12;6.22;;;3.55;;
41687;SDS011;27371;42.686;23.362;2023-09-19T14:17:39;10.45;;;3.90;;
41687;SDS011;27371;42.686;23.362;2023-09-19T14:20:07;8.88;;;3.67;;
41687;SDS011;27371;42.686;23.362;2023-09-19T14:22:36;6.65;;;3.60;;
41687;SDS011;27371;42.686;23.362;2023-09-19T14:25:03;7.68;;;3.40;;
41687;SDS011;27371;42.686;23.362;2023-09-19T14:27:29;8.00;;;3.40;;
41687;SDS011;27371;42.686;23.362;2023-09-19T14:29:55;6.28;;;3.72;;
41687;SDS011;27371;42.686;23.362;2023-09-19T14:32:22;4.10;;;3.40;;
41687;SDS011;27371;42.686;23.362;2023-09-19T14:34:48;5.30;;;3.20;;
41687;SDS011;27371;42.686;23.362;2023-09-19T14:37:14;3.92;;;3.47;;
41687;SDS011;27371;42.686;23.362;2023-09-19T14:39:41;5.10;;;3.40;;
41687;SDS011;27371;42.686;23.362;2023-09-19T14:42:10;10.15;;;3.42;;
41687;SDS011;27371;42.686;23.362;2023-09-19T14:44:35;6.82;;;2.90;;
41687;SDS011;27371;42.686;23.362;2023-09-19T14:47:02;5.93;;;3.28;;
41687;SDS011;27371;42.686;23.362;2023-09-19T14:49:32;4.00;;;2.97;;
41687;SDS011;27371;42.686;23.362;2023-09-19T14:51:58;5.40;;;3.50;;
41687;SDS011;27371;42.686;23.362;2023-09-19T14:54:24;5.53;;;3.10;;
41687;SDS011;27371;42.686;23.362;2023-09-19T14:56:49;6.57;;;3.55;;
41687;SDS011;27371;42.686;23.362;2023-09-19T14:59:19;5.03;;;3.55;;
41687;SDS011;27371;42.686;23.362;2023-09-19T15:01:45;4.03;;;3.10;;
41687;SDS011;27371;42.686;23.362;2023-09-19T15:04:11;9.15;;;3.80;;
41687;SDS011;27371;42.686;23.362;2023-09-19T15:06:36;5.13;;;3.47;;
41687;SDS011;27371;42.686;23.362;2023-09-19T15:09:02;8.27;;;3.90;;
41687;SDS011;27371;42.686;23.362;2023-09-19T15:11:30;9.30;;;3.75;;
41687;SDS011;27371;42.686;23.362;2023-09-19T15:13:55;9.48;;;4.10;;
41687;SDS011;27371;42.686;23.362;2023-09-19T15:16:21;6.78;;;3.75;;
41687;SDS011;27371;42.686;23.362;2023-09-19T15:18:47;9.70;;;3.90;;
41687;SDS011;27371;42.686;23.362;2023-09-19T15:21:13;6.38;;;3.80;;
41687;SDS011;27371;42.686;23.362;2023-09-19T15:23:40;5.45;;;3.90;;
41687;SDS011;27371;42.686;23.362;2023-09-19T15:26:07;5.55;;;3.53;;
41687;SDS011;27371;42.686;23.362;2023-09-19T15:28:33;5.57;;;3.40;;
41687;SDS011;27371;42.686;23.362;2023-09-19T15:31:02;4.78;;;3.60;;
41687;SDS011;27371;42.686;23.362;2023-09-19T15:33:35;4.75;;;3.58;;
41687;SDS011;27371;42.686;23.362;2023-09-19T15:38:31;8.60;;;3.90;;
41687;SDS011;27371;42.686;23.362;2023-09-19T15:41:21;12.88;;;3.92;;
41687;SDS011;27371;42.686;23.362;2023-09-19T15:43:47;4.80;;;3.40;;
41687;SDS011;27371;42.686;23.362;2023-09-19T15:46:12;6.38;;;4.03;;
41687;SDS011;27371;42.686;23.362;2023-09-19T15:48:40;5.90;;;3.75;;
41687;SDS011;27371;42.686;23.362;2023-09-19T15:51:05;6.38;;;3.70;;
41687;SDS011;27371;42.686;23.362;2023-09-19T15:54:07;9.20;;;3.75;;